Eagle Turin — 9VMG6 — position and weather

sailwx.info

Track history (hours):
 
Tides and Currents Weather Stations Pressure Air Temp Water Temp Dewpoint Dewpoint Depression Visibility Wind Speed Wind Dir Waves Ship Positions

Eagle Turin

Last reported at 2014-Jun-28 08:32 UTC. Time now 2014-Jul-23 16:17 UTC.
Position N 52°00' W 005°50'.
Warning: this ship's position is 25 days out of date.

Length 246 m; draft 8.5 m.

Type: Tanker. MMSI: 565770000.

Date/timePositionNaut miles runAvg speedWind from/ knotsBaromVisibWave heightAir tempDewpointWater temp
2014-Jun-28 08:32N 52°00' W 005°50'1111.1
2014-Jun-28 07:33N 52°10' W 005°45'1111.6
2014-Jun-28 06:33N 52°21' W 005°39'1312.8
2014-Jun-28 05:33N 52°34' W 005°33'8413.2
2014-Jun-27 23:09N 53°34' W 003°54'813.2
2014-Jun-27 22:33N 53°33' W 003°41'1212.0
2014-Jun-27 21:33N 53°32' W 003°21'8 8.1
2014-Jun-27 20:33N 53°31' W 003°07'9 8.5
2014-Jun-27 19:33N 53°24' W 003°00'1 1.1
2014-Jun-27 18:33N 53°23' W 003°00'0 0.0
2014-Jun-27 17:29N 53°23' W 003°00'0 0.0
2014-Jun-27 16:29N 53°23' W 003°00'0 0.0
2014-Jun-27 15:17N 53°23' W 003°00'0 0.0
2014-Jun-27 14:29N 53°23' W 003°00'0 0.0
2014-Jun-27 13:17N 53°23' W 003°00'0 0.0
2014-Jun-27 11:17N 53°23' W 003°00'0 0.0
2014-Jun-27 10:29N 53°23' W 003°00'0 0.0
2014-Jun-27 08:29N 53°23' W 003°00'0 0.0
2014-Jun-27 07:29N 53°23' W 003°00'0 0.0
2014-Jun-27 05:29N 53°23' W 003°00'0 0.0
2014-Jun-27 04:17N 53°23' W 003°00'0 0.0
2014-Jun-27 01:29N 53°23' W 003°00'0 0.0
2014-Jun-27 00:29N 53°23' W 003°00'0 0.0
2014-Jun-26 22:05N 53°23' W 003°00'0 0.0
2014-Jun-26 16:29N 53°23' W 003°00'0 0.0
2014-Jun-26 11:29N 53°23' W 003°00'0 0.1
2014-Jun-26 10:33N 53°23' W 003°00'7 6.5
2014-Jun-26 09:32N 53°29' W 003°05'7 7.6
2014-Jun-26 08:33N 53°31' W 003°17'1110.8
2014-Jun-26 07:33N 53°31' W 003°35'1111.4
2014-Jun-26 06:33N 53°30' W 003°54'1311.4
2014-Jun-26 05:27N 53°27' W 004°15'3 2.9
2014-Jun-26 04:32N 53°25' W 004°12'0 0.0
2014-Jun-26 00:23N 53°25' W 004°12'4 4.3
2014-Jun-25 23:34N 53°27' W 004°17'7111.0
2014-Jun-25 17:07N 52°28' W 005°23'814.4
2014-Jun-25 16:32N 52°20' W 005°27'1413.6
2014-Jun-25 15:33N 52°07' W 005°35'1212.5
2014-Jun-25 14:33N 51°56' W 005°42'7612.6
2014-Jun-25 08:30N 50°43' W 006°18'  
2014-Jun-22 20:07N 38°09' W 009°46'813.3
2014-Jun-22 19:33N 38°01' W 009°44'1313.1
2014-Jun-22 18:33N 37°49' W 009°40'1313.2
2014-Jun-22 17:34N 37°36' W 009°37'1413.2
2014-Jun-22 16:29N 37°22' W 009°34'5612.9
2014-Jun-22 12:08N 36°37' W 008°53'50811.9
2014-Jun-20 17:23N 37°15' E 001°41'4213.1
2014-Jun-20 14:10N 37°24' E 002°32'813.3
2014-Jun-20 13:33N 37°24' E 002°43'1413.6
2014-Jun-20 12:33N 37°24' E 002°60'1313.6
2014-Jun-20 11:33N 37°24' E 003°17'1313.4
2014-Jun-20 10:33N 37°24' E 003°34'1413.4
2014-Jun-20 09:33N 37°22' E 003°50'1313.5
2014-Jun-20 08:33N 37°19' E 004°07'1414.2
2014-Jun-20 07:32N 37°17' E 004°25'1312.0
2014-Jun-20 06:29N 37°14' E 004°40'1514.1
2014-Jun-20 05:24N 37°04' E 004°55'1112.9
2014-Jun-20 04:33N 36°57' E 005°05'1211.5
2014-Jun-20 03:33N 36°46' E 005°10'0 0.4
2014-Jun-20 02:33N 36°46' E 005°10'0 0.2
2014-Jun-20 01:32N 36°46' E 005°10'  
Track history (hours):
 
Tides and Currents Weather Stations Pressure Air Temp Water Temp Dewpoint Dewpoint Depression Visibility Wind Speed Wind Dir Waves Ship Positions

Eagle Turin

Last reported at 2014-Jun-28 08:32 UTC. Time now 2014-Jul-23 16:17 UTC.
Position N 52°00' W 005°50'.
Warning: this ship's position is 25 days out of date.

Length 246 m; draft 8.5 m.

Type: Tanker. MMSI: 565770000.

Date/timePositionNaut miles runAvg speedWind from/ knotsBaromVisibWave heightAir tempDewpointWater temp
2014-Jun-28 08:32N 52°00' W 005°50'1111.1
2014-Jun-28 07:33N 52°10' W 005°45'1111.6
2014-Jun-28 06:33N 52°21' W 005°39'1312.8
2014-Jun-28 05:33N 52°34' W 005°33'8413.2
2014-Jun-27 23:09N 53°34' W 003°54'813.2
2014-Jun-27 22:33N 53°33' W 003°41'1212.0
2014-Jun-27 21:33N 53°32' W 003°21'8 8.1
2014-Jun-27 20:33N 53°31' W 003°07'9 8.5
2014-Jun-27 19:33N 53°24' W 003°00'1 1.1
2014-Jun-27 18:33N 53°23' W 003°00'0 0.0
2014-Jun-27 17:29N 53°23' W 003°00'0 0.0
2014-Jun-27 16:29N 53°23' W 003°00'0 0.0
2014-Jun-27 15:17N 53°23' W 003°00'0 0.0
2014-Jun-27 14:29N 53°23' W 003°00'0 0.0
2014-Jun-27 13:17N 53°23' W 003°00'0 0.0
2014-Jun-27 11:17N 53°23' W 003°00'0 0.0
2014-Jun-27 10:29N 53°23' W 003°00'0 0.0
2014-Jun-27 08:29N 53°23' W 003°00'0 0.0
2014-Jun-27 07:29N 53°23' W 003°00'0 0.0
2014-Jun-27 05:29N 53°23' W 003°00'0 0.0
2014-Jun-27 04:17N 53°23' W 003°00'0 0.0
2014-Jun-27 01:29N 53°23' W 003°00'0 0.0
2014-Jun-27 00:29N 53°23' W 003°00'0 0.0
2014-Jun-26 22:05N 53°23' W 003°00'0 0.0
2014-Jun-26 16:29N 53°23' W 003°00'0 0.0
2014-Jun-26 11:29N 53°23' W 003°00'0 0.1
2014-Jun-26 10:33N 53°23' W 003°00'7 6.5
2014-Jun-26 09:32N 53°29' W 003°05'7 7.6
2014-Jun-26 08:33N 53°31' W 003°17'1110.8
2014-Jun-26 07:33N 53°31' W 003°35'1111.4
2014-Jun-26 06:33N 53°30' W 003°54'1311.4
2014-Jun-26 05:27N 53°27' W 004°15'3 2.9
2014-Jun-26 04:32N 53°25' W 004°12'0 0.0
2014-Jun-26 00:23N 53°25' W 004°12'4 4.3
2014-Jun-25 23:34N 53°27' W 004°17'7111.0
2014-Jun-25 17:07N 52°28' W 005°23'814.4
2014-Jun-25 16:32N 52°20' W 005°27'1413.6
2014-Jun-25 15:33N 52°07' W 005°35'1212.5
2014-Jun-25 14:33N 51°56' W 005°42'7612.6
2014-Jun-25 08:30N 50°43' W 006°18'  
2014-Jun-22 20:07N 38°09' W 009°46'813.3
2014-Jun-22 19:33N 38°01' W 009°44'1313.1
2014-Jun-22 18:33N 37°49' W 009°40'1313.2
2014-Jun-22 17:34N 37°36' W 009°37'1413.2
2014-Jun-22 16:29N 37°22' W 009°34'5612.9
2014-Jun-22 12:08N 36°37' W 008°53'50811.9
2014-Jun-20 17:23N 37°15' E 001°41'4213.1
2014-Jun-20 14:10N 37°24' E 002°32'813.3
2014-Jun-20 13:33N 37°24' E 002°43'1413.6
2014-Jun-20 12:33N 37°24' E 002°60'1313.6
2014-Jun-20 11:33N 37°24' E 003°17'1313.4
2014-Jun-20 10:33N 37°24' E 003°34'1413.4
2014-Jun-20 09:33N 37°22' E 003°50'1313.5
2014-Jun-20 08:33N 37°19' E 004°07'1414.2
2014-Jun-20 07:32N 37°17' E 004°25'1312.0
2014-Jun-20 06:29N 37°14' E 004°40'1514.1
2014-Jun-20 05:24N 37°04' E 004°55'1112.9
2014-Jun-20 04:33N 36°57' E 005°05'1211.5
2014-Jun-20 03:33N 36°46' E 005°10'0 0.4
2014-Jun-20 02:33N 36°46' E 005°10'0 0.2
2014-Jun-20 01:32N 36°46' E 005°10'  

Dump ship's entire track history